Nederlandse vliegveldverwachtingen (TAF)

Luchtvaartmeteorologische informatie voor operationeel gebruik en vluchtvoorbereiding is beschikbaar op www.luchtvaartmeteo.nl.

ZCZC
FC240900 EHWO     WOENSDRECHT/WOENSDRECHT   NLD   19 m.
TAF EHWO 240912Z 2410/2422 08010G20KT CAVOK
    BECMG 2410/2412 FEW020
    BECMG 2418/2421 09010KT=

ZCZC
FC240900 EHVK     VOLKEL/VOLKEL   NLD   21 m.
TAF EHVK 240905Z 2410/2422 09012G22KT 9999 BKN020
    BECMG 2410/2412 SCT020
    BECMG 2418/2421 09010KT=

ZCZC
FC240900 EHLW     LEEUWARDEN/LEEUWARDEN   NLD   1 m.
TAF EHLW 240906Z 2410/2422 07015KT CAVOK=

ZCZC
FC240900 EHGR     GILZE-RIJEN/GILZE-RIJEN   NLD   14 m.
TAF EHGR 240909Z 2410/2422 08012G22KT 9999 SCT020
    BECMG 2418/2421 09010KT=

ZCZC
FC241000 EHKD     DE KOOY/DE KOOY   NLD   1 m.
TAF EHKD 240911Z 2410/2422 07015G25KT CAVOK
    BECMG 2417/2419 07012KT=

ZCZC
FT241100 EHAM     AMSTERDAM/SCHIPHOL   NLD   -3 m.
TAF EHAM 241106Z 2412/2518 06014KT CAVOK
    BECMG 2419/2422 05008KT
    BECMG 2509/2512 04013KT=

ZCZC
FT241100 EHBK     MAASTRICHT/MAASTRICHT-AACHEN   NLD   114 m.
TAF EHBK 241117Z 2412/2518 07012KT CAVOK=

ZCZC
FT241100 EHGG     GRONINGEN/EELDE   NLD   5 m.
TAF EHGG 241117Z 2412/2518 07010KT CAVOK
    BECMG 2414/2417 02010KT
    BECMG 2422/2501 VRB03KT 5000 BR
    PROB40 2502/2507 1200 BCFG
    BECMG 2507/2509 36008KT CAVOK=

ZCZC
FT241100 EHRD     ROTTERDAM/THE HAGUE AIRPORT   NLD   -5 m.
TAF EHRD 241106Z 2412/2518 06014KT CAVOK
    BECMG 2419/2422 05008KT
    BECMG 2509/2512 04013KT=

ZCZC
FT241100 EHEH     EINDHOVEN/EINDHOVEN   NLD   22 m.
TAF EHEH 241128Z 2412/2518 05010KT CAVOK
    BECMG 2509/2512 06013G23KT
    BECMG 2516/2518 06010KT=

24/03/2017 13.15 uur LT